Terminal Aerodrome Forecast
Issued by NWS Twin Cities, MN

Home | Current Version | Previous Version | Text Only | Print | Product List | Glossary Off
Versions: 1 2 3 4 5 6 7 8 9 10 11 12 13 14 15 16 17

745
FTUS43 KMPX 231505 AAA
TAFEAU
TAF AMD
KEAU 231505Z 2315/2412 35009KT P6SM SCT015 OVC025
      TEMPO 2315/2318 BKN015
     FM231800 01008KT P6SM SCT025 BKN040
     FM240500 04011G19KT 6SM -SN OVC030
     FM240800 04012G23KT 2SM -SN OVC015
     FM241000 03014G25KT 1SM -SN VV004=

USA.gov is the U.S. government's official web portal to all federal, state and local government web resources and services.